Terminal Aerodrome Forecast
Issued by NWS

Home | Current Version | Previous Version | Text Only | Print | Product List | Glossary On
Versions: 1 2 3 4 5 6 7 8 9 10 11 12 13
000
FTUS45 KBOI 051141
TAFMYL
TAF
KMYL 051141Z 0512/0612 VRB05KT P6SM OVC100
     FM051800 18011KT P6SM BKN100 OVC200
     FM060000 VRB10G20KT P6SM VCSH BKN080 OVC150
     FM060400 VRB06KT P6SM BKN080 OVC150=

USA.gov is the U.S. government's official web portal to all federal, state and local government web resources and services.